Time;durP1;ratioP1;P1;durP2;ratioP2;P2;SDS_P1;SDS_P2;PMS_P1;PMS_P2;Temp;Humidity;BMP_temperature;BMP_pressure;BME280_temperature;BME280_humidity;BME280_pressure;Samples;Min_cycle;Max_cycle;Signal;HPM_P1;HPM_P2
2022/04/09 00:00:07;;;;;;;;;;;12.10;84.90;12.30;98811.00;;;;348334;27;92199;-93
2022/04/09 00:00:21;;;;;;;;;;;12.10;84.90;12.30;98819.00;;;;345774;28;94927;-93
2022/04/09 00:00:32;;;;;;;;;;;12.10;85.10;12.30;98823.00;;;;345659;28;91109;-94
2022/04/09 00:00:44;;;;;;;;;;;12.10;85.10;12.20;98818.00;;;;345924;28;95532;-93
2022/04/09 00:00:56;;;;;;;;;;;12.10;85.30;12.20;98828.00;;;;348026;27;91301;-92
2022/04/09 00:01:08;;;;;;;;;;;12.00;85.50;12.20;98820.00;;;;345670;28;96635;-93
2022/04/09 00:01:20;;;;;;;;;;;12.00;85.60;12.20;98833.00;;;;346836;28;91169;-93
2022/04/09 00:01:32;;;;;;;;;;;12.00;85.50;12.20;98823.00;;;;345808;28;95701;-94
2022/04/09 00:01:44;;;;;;;;;;;12.00;85.20;12.10;98827.00;;;;348333;27;92308;-93
2022/04/09 00:01:56;;;;;;;;;;;11.90;85.20;12.10;98822.00;;;;345891;28;95669;-94
2022/04/09 00:02:08;;;;;;;;;;;11.90;85.20;12.10;98819.00;;;;348452;27;91859;-93
2022/04/09 00:02:20;;;;;;;;;;;11.90;85.50;12.00;98821.00;;;;345836;28;96251;-93
2022/04/09 00:02:31;;;;;;;;;;;11.90;85.40;12.10;98813.00;;;;345653;28;92022;-94
2022/04/09 00:02:43;;;;;;;;;;;11.90;85.40;12.20;98815.00;;;;346018;28;94106;-93
2022/04/09 00:02:55;;;;;;;;;;;11.90;85.80;12.20;98813.00;;;;345696;28;91900;-94
2022/04/09 00:03:07;;;;;;;;;;;11.90;85.20;12.20;98817.00;;;;347141;28;95958;-94
2022/04/09 00:03:19;;;;;;;;;;;11.90;85.10;12.20;98819.00;;;;345672;28;91926;-94
2022/04/09 00:03:31;;;;;;;;;;;11.90;85.10;12.20;98815.00;;;;344569;28;93639;-94
2022/04/09 00:03:43;;;;;;;;;;;11.90;85.50;12.10;98817.00;;;;344141;28;92972;-94
2022/04/09 00:03:55;;;;;;;;;;;11.90;85.80;12.20;98822.00;;;;344974;28;94015;-94
2022/04/09 00:04:06;;;;;;;;;;;11.90;86.00;12.10;98825.00;;;;346144;28;92214;-94
2022/04/09 00:04:18;;;;;;;;;;;11.90;86.20;12.20;98825.00;;;;345839;28;95872;-94
2022/04/09 00:04:30;;;;;;;;;;;11.90;86.30;12.20;98821.00;;;;345657;28;91977;-94
2022/04/09 00:04:42;;;;;;;;;;;11.90;86.40;12.20;98811.00;;;;345754;28;95821;-94
2022/04/09 00:04:54;;;;;;;;;;;11.90;86.40;12.20;98813.00;;;;344625;28;91989;-93
2022/04/09 00:05:07;;;;;;;;;;;11.80;86.10;12.20;98822.00;;;;344452;28;94967;-94
2022/04/09 00:05:18;;;;;;;;;;;11.90;86.40;12.10;98818.00;;;;345637;28;92042;-94
2022/04/09 00:05:30;;;;;;;;;;;11.90;86.50;12.20;98833.00;;;;347271;28;96088;-94
2022/04/09 00:05:42;;;;;;;;;;;11.80;86.40;12.20;98833.00;;;;345607;28;93118;-94
2022/04/09 00:05:54;;;;;;;;;;;11.90;86.60;12.20;98838.00;;;;345866;28;96799;-94
2022/04/09 00:06:06;;;;;;;;;;;11.80;86.40;12.20;98830.00;;;;346799;28;91083;-93
2022/04/09 00:06:18;;;;;;;;;;;11.80;86.70;12.10;98835.00;;;;345873;28;94580;-94
2022/04/09 00:06:30;;;;;;;;;;;11.80;86.90;12.10;98830.00;;;;345656;28;92035;-94
2022/04/09 00:06:41;;;;;;;;;;;11.90;87.10;12.20;98832.00;;;;344637;28;95630;-93
2022/04/09 00:06:53;;;;;;;;;;;11.90;86.80;12.10;98835.00;;;;346630;28;91432;-94
2022/04/09 00:07:05;;;;;;;;;;;11.80;87.10;12.20;98828.00;;;;348134;27;95851;-94
2022/04/09 00:07:17;;;;;;;;;;;11.80;87.00;12.10;98840.00;;;;345708;28;91339;-93
2022/04/09 00:07:29;;;;;;;;;;;11.80;87.20;12.10;98850.00;;;;344536;28;94597;-94
2022/04/09 00:07:42;;;;;;;;;;;11.80;87.20;12.00;98861.00;;;;345626;28;92983;-93
2022/04/09 00:07:54;;;;;;;;;;;11.80;87.40;12.00;98843.00;;;;345695;28;95753;-94
2022/04/09 00:08:06;;;;;;;;;;;11.80;87.60;12.10;98849.00;;;;348475;27;92017;-94
2022/04/09 00:08:17;;;;;;;;;;;11.80;87.60;12.10;98835.00;;;;345817;28;95092;-93
2022/04/09 00:08:29;;;;;;;;;;;11.80;87.30;12.00;98853.00;;;;347029;28;92006;-93
2022/04/09 00:08:41;;;;;;;;;;;11.70;87.10;11.80;98852.00;;;;350120;27;95757;-93
2022/04/09 00:08:54;;;;;;;;;;;11.70;86.60;11.90;98840.00;;;;345676;28;92050;-94
2022/04/09 00:09:05;;;;;;;;;;;11.70;86.80;11.90;98847.00;;;;345877;28;95799;-94
2022/04/09 00:09:18;;;;;;;;;;;11.70;87.20;11.90;98848.00;;;;346759;28;92119;-93
2022/04/09 00:09:30;;;;;;;;;;;11.70;87.50;11.90;98845.00;;;;345692;28;94434;-93
2022/04/09 00:09:42;;;;;;;;;;;11.70;87.50;11.90;98850.00;;;;346932;27;93003;-94
2022/04/09 00:09:53;;;;;;;;;;;11.60;87.40;11.90;98847.00;;;;347590;27;96726;-93
2022/04/09 00:10:06;;;;;;;;;;;11.70;87.50;11.90;98848.00;;;;347085;28;91937;-94
2022/04/09 00:10:18;;;;;;;;;;;11.60;87.50;11.90;98854.00;;;;347293;28;95146;-93
2022/04/09 00:10:30;;;;;;;;;;;11.60;87.50;11.90;98854.00;;;;345619;28;92078;-94
2022/04/09 00:10:42;;;;;;;;;;;11.60;87.90;11.90;98860.00;;;;344645;28;94865;-94
2022/04/09 00:10:53;;;;;;;;;;;11.60;87.70;12.00;98844.00;;;;345604;28;92054;-93
2022/04/09 00:11:05;;;;;;;;;;;11.60;87.70;12.00;98853.00;;;;345856;28;94918;-94
2022/04/09 00:11:18;;;;;;;;;;;11.60;87.80;11.90;98851.00;;;;348457;27;91286;-93
2022/04/09 00:11:30;;;;;;;;;;;11.60;87.90;12.00;98859.00;;;;347237;28;94865;-93
2022/04/09 00:11:42;;;;;;;;;;;11.60;87.80;11.90;98863.00;;;;345662;28;92179;-94
2022/04/09 00:11:53;;;;;;;;;;;11.60;88.10;11.90;98856.00;;;;347267;27;96047;-94
2022/04/09 00:12:05;;;;;;;;;;;11.60;88.10;12.00;98845.00;;;;347094;28;91957;-94
2022/04/09 00:12:17;;;;;;;;;;;11.60;87.90;11.90;98851.00;;;;344479;28;94375;-94
2022/04/09 00:12:29;;;;;;;;;;;11.60;88.00;11.90;98850.00;;;;346787;28;92020;-94
2022/04/09 00:12:45;;;;;;;;;;;11.60;88.00;11.90;98842.00;;;;347703;28;95173;-93
2022/04/09 00:12:57;;;;;;;;;;;11.60;87.90;11.90;98845.00;;;;349538;27;92261;-94
2022/04/09 00:13:08;;;;;;;;;;;11.60;87.90;12.00;98852.00;;;;345949;28;94567;-93
2022/04/09 00:13:21;;;;;;;;;;;11.60;87.70;11.90;98848.00;;;;347430;28;91116;-94
2022/04/09 00:13:32;;;;;;;;;;;11.60;87.90;11.90;98850.00;;;;349127;27;95927;-93
2022/04/09 00:13:44;;;;;;;;;;;11.60;87.90;11.90;98838.00;;;;347358;28;93881;-94
2022/04/09 00:13:56;;;;;;;;;;;11.60;87.80;11.90;98839.00;;;;346971;28;96658;-93
2022/04/09 00:14:08;;;;;;;;;;;11.60;87.80;11.80;98846.00;;;;347267;28;92106;-93
2022/04/09 00:14:20;;;;;;;;;;;11.60;87.80;11.80;98849.00;;;;347548;28;94787;-93
2022/04/09 00:14:31;;;;;;;;;;;11.60;87.90;11.80;98842.00;;;;343252;28;92143;-93
2022/04/09 00:14:43;;;;;;;;;;;11.50;87.90;11.80;98842.00;;;;346319;28;94789;-94
2022/04/09 00:14:55;;;;;;;;;;;11.60;88.00;11.80;98841.00;;;;345946;28;92024;-94
2022/04/09 00:15:07;;;;;;;;;;;11.60;88.00;11.80;98854.00;;;;347405;27;94878;-94
2022/04/09 00:15:19;;;;;;;;;;;11.60;88.20;11.70;98856.00;;;;344612;28;91298;-93
2022/04/09 00:15:31;;;;;;;;;;;11.50;88.30;11.70;98842.00;;;;346316;28;95848;-93
2022/04/09 00:15:43;;;;;;;;;;;11.50;88.60;11.70;98842.00;;;;347377;28;93019;-93
2022/04/09 00:15:55;;;;;;;;;;;11.50;88.70;11.70;98840.00;;;;345269;28;97051;-94
2022/04/09 00:16:07;;;;;;;;;;;11.50;88.80;11.70;98848.00;;;;347725;27;92066;-93
2022/04/09 00:16:19;;;;;;;;;;;11.40;89.30;11.70;98833.00;;;;347618;28;96340;-93
2022/04/09 00:16:32;;;;;;;;;;;11.50;89.00;11.70;98842.00;;;;346069;28;91232;-93
2022/04/09 00:16:44;;;;;;;;;;;11.50;89.10;11.70;98828.00;;;;347832;28;95934;-93
2022/04/09 00:16:56;;;;;;;;;;;11.40;89.00;11.70;98833.00;;;;347124;28;92205;-93
2022/04/09 00:17:09;;;;;;;;;;;11.40;88.90;11.70;98845.00;;;;347559;28;95996;-95
2022/04/09 00:17:20;;;;;;;;;;;11.40;89.00;11.60;98834.00;;;;348530;27;92042;-93
2022/04/09 00:17:39;;;;;;;;;;;11.40;89.10;11.60;98832.00;;;;345950;28;95706;-93
2022/04/09 00:17:51;;;;;;;;;;;11.40;89.10;11.70;98846.00;;;;347006;28;93017;-94
2022/04/09 00:18:03;;;;;;;;;;;11.40;89.30;11.70;98840.00;;;;345846;28;95394;-94
2022/04/09 00:18:15;;;;;;;;;;;11.40;89.30;11.70;98837.00;;;;345341;28;92090;-94
2022/04/09 00:18:27;;;;;;;;;;;11.40;89.40;11.70;98843.00;;;;345910;28;96328;-93
2022/04/09 00:18:43;;;;;;;;;;;11.40;89.60;11.70;98841.00;;;;348444;27;91993;-93
2022/04/09 00:18:55;;;;;;;;;;;11.40;89.60;11.70;98841.00;;;;346585;28;95105;-94
2022/04/09 00:19:06;;;;;;;;;;;11.40;89.60;11.70;98841.00;;;;345394;28;91990;-95
2022/04/09 00:19:18;;;;;;;;;;;11.40;89.70;11.80;98850.00;;;;345909;28;94764;-93
2022/04/09 00:19:30;;;;;;;;;;;11.40;89.60;11.80;98839.00;;;;347012;28;92016;-94
2022/04/09 00:19:43;;;;;;;;;;;11.40;89.80;11.70;98844.00;;;;348654;27;96032;-94
2022/04/09 00:19:54;;;;;;;;;;;11.40;90.10;11.70;98853.00;;;;346976;28;92145;-94
2022/04/09 00:20:06;;;;;;;;;;;11.40;90.20;11.70;98844.00;;;;345866;28;96687;-93
2022/04/09 00:20:18;;;;;;;;;;;11.40;90.10;11.80;98847.00;;;;344212;28;91225;-94
2022/04/09 00:20:30;;;;;;;;;;;11.40;90.00;11.70;98851.00;;;;347230;28;95230;-94
2022/04/09 00:20:42;;;;;;;;;;;11.40;90.10;11.80;98845.00;;;;344286;28;91930;-93
2022/04/09 00:20:55;;;;;;;;;;;11.40;90.10;11.80;98848.00;;;;347277;28;94677;-94
2022/04/09 00:21:07;;;;;;;;;;;11.40;90.20;11.80;98854.00;;;;347035;28;91221;-94
2022/04/09 00:21:19;;;;;;;;;;;11.40;90.20;11.80;98843.00;;;;345836;28;95477;-94
2022/04/09 00:21:31;;;;;;;;;;;11.40;90.30;11.70;98849.00;;;;346989;28;91965;-94
2022/04/09 00:21:43;;;;;;;;;;;11.40;90.40;11.70;98846.00;;;;348600;27;95983;-93
2022/04/09 00:21:55;;;;;;;;;;;11.40;90.40;11.80;98840.00;;;;345198;28;92209;-93
2022/04/09 00:22:06;;;;;;;;;;;11.40;90.40;11.70;98848.00;;;;345594;28;96661;-95
2022/04/09 00:22:19;;;;;;;;;;;11.40;90.60;11.70;98849.00;;;;346914;28;91162;-93
2022/04/09 00:22:31;;;;;;;;;;;11.40;90.60;11.60;98857.00;;;;345867;28;95717;-93
2022/04/09 00:22:44;;;;;;;;;;;11.40;90.80;11.60;98844.00;;;;344333;28;91924;-95
2022/04/09 00:22:56;;;;;;;;;;;11.40;90.80;11.70;98848.00;;;;344415;28;96046;-94
2022/04/09 00:23:10;;;;;;;;;;;11.40;90.80;11.60;98854.00;;;;345553;28;92135;-93
2022/04/09 00:23:23;;;;;;;;;;;11.40;91.00;11.60;98852.00;;;;347221;28;95229;-93
2022/04/09 00:23:35;;;;;;;;;;;11.40;90.90;11.60;98850.00;;;;346873;28;91986;-94
2022/04/09 00:23:46;;;;;;;;;;;11.30;90.90;11.50;98855.00;;;;346001;28;91981;-93
2022/04/09 00:23:58;;;;;;;;;;;11.30;91.00;11.60;98857.00;;;;344310;28;92098;-93
2022/04/09 00:24:10;;;;;;;;;;;11.30;91.20;11.60;98857.00;;;;345921;28;95407;-93
2022/04/09 00:24:22;;;;;;;;;;;11.30;90.90;11.60;98862.00;;;;344034;28;92065;-93
2022/04/09 00:24:34;;;;;;;;;;;11.40;90.90;11.60;98851.00;;;;344536;28;95528;-94
2022/04/09 00:24:46;;;;;;;;;;;11.30;90.90;11.70;98864.00;;;;345634;28;91962;-93
2022/04/09 00:24:58;;;;;;;;;;;11.30;90.90;11.60;98872.00;;;;346440;28;94560;-93
2022/04/09 00:25:14;;;;;;;;;;;11.30;90.80;11.60;98862.00;;;;345626;28;92061;-93
2022/04/09 00:25:26;;;;;;;;;;;11.30;90.80;11.70;98853.00;;;;347243;28;94534;-92
2022/04/09 00:25:38;;;;;;;;;;;11.30;90.70;11.60;98860.00;;;;345506;28;91991;-93
2022/04/09 00:25:50;;;;;;;;;;;11.30;90.70;11.60;98859.00;;;;347451;28;92408;-93
2022/04/09 00:26:02;;;;;;;;;;;11.30;90.70;11.60;98868.00;;;;345596;28;92958;-93
2022/04/09 00:26:14;;;;;;;;;;;11.30;90.70;11.50;98857.00;;;;347245;28;95106;-93
2022/04/09 00:26:25;;;;;;;;;;;11.30;90.70;11.60;98850.00;;;;345575;28;91218;-93
2022/04/09 00:26:37;;;;;;;;;;;11.30;90.70;11.50;98869.00;;;;347290;28;94854;-94
2022/04/09 00:26:49;;;;;;;;;;;11.30;90.70;11.50;98861.00;;;;344319;28;92093;-94
2022/04/09 00:27:01;;;;;;;;;;;11.30;90.80;11.50;98864.00;;;;345786;28;94501;-93
2022/04/09 00:27:13;;;;;;;;;;;11.20;90.80;11.50;98863.00;;;;345602;28;92038;-93
2022/04/09 00:27:25;;;;;;;;;;;11.30;90.90;11.50;98864.00;;;;344436;28;94814;-93
2022/04/09 00:27:37;;;;;;;;;;;11.30;90.90;11.50;98865.00;;;;344128;28;92034;-93
2022/04/09 00:27:49;;;;;;;;;;;11.20;90.90;11.50;98861.00;;;;344353;28;94954;-93
2022/04/09 00:28:00;;;;;;;;;;;11.20;90.90;11.50;98875.00;;;;345562;28;92997;-94
2022/04/09 00:28:12;;;;;;;;;;;11.20;91.00;11.50;98868.00;;;;346786;28;97073;-94
2022/04/09 00:28:24;;;;;;;;;;;11.20;90.90;11.40;98869.00;;;;346768;27;92300;-94
2022/04/09 00:28:36;;;;;;;;;;;11.20;91.10;11.40;98862.00;;;;343131;28;96311;-94
2022/04/09 00:28:48;;;;;;;;;;;11.20;91.10;11.50;98867.00;;;;344260;28;91841;-94
2022/04/09 00:28:59;;;;;;;;;;;11.10;91.10;11.50;98863.00;;;;344450;28;95837;-94
2022/04/09 00:29:12;;;;;;;;;;;11.20;91.10;11.40;98871.00;;;;345301;28;92222;-94
2022/04/09 00:29:23;;;;;;;;;;;11.20;91.10;11.50;98874.00;;;;345772;28;96062;-93
2022/04/09 00:29:35;;;;;;;;;;;11.10;91.10;11.50;98872.00;;;;345583;28;92075;-93
2022/04/09 00:29:47;;;;;;;;;;;11.10;90.90;11.40;98873.00;;;;345872;28;96293;-94
2022/04/09 00:29:59;;;;;;;;;;;11.20;90.90;11.50;98867.00;;;;347002;28;92079;-93
2022/04/09 00:30:11;;;;;;;;;;;11.20;90.80;11.50;98861.00;;;;345918;28;94291;-93
2022/04/09 00:30:23;;;;;;;;;;;11.20;90.90;11.50;98862.00;;;;348322;27;92027;-93
2022/04/09 00:30:35;;;;;;;;;;;11.20;90.80;11.60;98860.00;;;;348651;27;96268;-94
2022/04/09 00:30:46;;;;;;;;;;;11.20;90.70;11.60;98861.00;;;;346819;28;91100;-94
2022/04/09 00:30:58;;;;;;;;;;;11.20;90.70;11.50;98861.00;;;;345292;28;93996;-93
2022/04/09 00:31:10;;;;;;;;;;;11.20;90.80;11.60;98867.00;;;;343873;28;92236;-93
2022/04/09 00:31:22;;;;;;;;;;;11.20;90.70;11.60;98877.00;;;;347083;28;95840;-94
2022/04/09 00:31:34;;;;;;;;;;;11.20;90.70;11.50;98873.00;;;;345622;28;92046;-92
2022/04/09 00:31:46;;;;;;;;;;;11.20;90.70;11.50;98869.00;;;;345948;28;95449;-94
2022/04/09 00:31:58;;;;;;;;;;;11.20;90.70;11.50;98868.00;;;;346812;28;93023;-93
2022/04/09 00:32:10;;;;;;;;;;;11.20;90.70;11.50;98864.00;;;;347271;28;94524;-94
2022/04/09 00:32:22;;;;;;;;;;;11.20;90.70;11.60;98863.00;;;;346897;28;92132;-93
2022/04/09 00:32:34;;;;;;;;;;;11.20;90.80;11.50;98868.00;;;;348641;27;94522;-94
2022/04/09 00:32:46;;;;;;;;;;;11.20;90.70;11.60;98863.00;;;;342946;28;91981;-93
2022/04/09 00:32:58;;;;;;;;;;;11.20;90.60;11.60;98870.00;;;;344528;28;95711;-94
2022/04/09 00:33:10;;;;;;;;;;;11.20;90.60;11.50;98882.00;;;;345549;28;92040;-94
2022/04/09 00:33:22;;;;;;;;;;;11.20;90.60;11.50;98884.00;;;;345875;28;95900;-94
2022/04/09 00:33:34;;;;;;;;;;;11.20;90.60;11.50;98877.00;;;;346943;28;91273;-93
2022/04/09 00:33:46;;;;;;;;;;;11.20;90.50;11.40;98871.00;;;;345544;28;94667;-93
2022/04/09 00:33:59;;;;;;;;;;;11.20;90.30;11.40;98872.00;;;;347904;27;93019;-93
2022/04/09 00:34:11;;;;;;;;;;;11.10;90.30;11.30;98884.00;;;;346767;28;95720;-93
2022/04/09 00:34:23;;;;;;;;;;;11.10;90.40;11.40;98876.00;;;;345551;28;92525;-93
2022/04/09 00:34:34;;;;;;;;;;;11.10;90.40;11.40;98877.00;;;;347101;28;96241;-93
2022/04/09 00:34:46;;;;;;;;;;;11.10;90.40;11.40;98880.00;;;;348463;27;91876;-94
2022/04/09 00:34:58;;;;;;;;;;;11.10;90.50;11.40;98884.00;;;;347090;28;95402;-93
2022/04/09 00:35:10;;;;;;;;;;;11.10;90.40;11.40;98880.00;;;;345523;28;92012;-93
2022/04/09 00:35:22;;;;;;;;;;;11.10;90.50;11.40;98876.00;;;;347203;28;95655;-93
2022/04/09 00:35:34;;;;;;;;;;;11.10;90.50;11.40;98878.00;;;;348438;27;91234;-94
2022/04/09 00:35:45;;;;;;;;;;;11.10;90.50;11.30;98881.00;;;;348748;27;95315;-94
2022/04/09 00:35:57;;;;;;;;;;;11.10;90.50;11.40;98889.00;;;;345676;28;93120;-94
2022/04/09 00:36:09;;;;;;;;;;;11.10;90.60;11.40;98880.00;;;;345688;28;97097;-93
2022/04/09 00:36:21;;;;;;;;;;;11.10;90.50;11.40;98887.00;;;;346759;28;91202;-93
2022/04/09 00:36:32;;;;;;;;;;;11.10;90.50;11.30;98877.00;;;;345768;28;94879;-94
2022/04/09 00:36:44;;;;;;;;;;;11.00;90.40;11.30;98880.00;;;;347074;28;91818;-93
2022/04/09 00:36:56;;;;;;;;;;;11.00;90.50;11.30;98880.00;;;;348014;27;95664;-93
2022/04/09 00:37:08;;;;;;;;;;;11.00;90.50;11.30;98875.00;;;;348910;27;92094;-93
2022/04/09 00:37:20;;;;;;;;;;;11.00;90.60;11.20;98879.00;;;;345816;28;95051;-94
2022/04/09 00:37:33;;;;;;;;;;;11.00;90.60;11.20;98878.00;;;;346731;28;91244;-93
2022/04/09 00:37:45;;;;;;;;;;;11.00;90.60;11.30;98877.00;;;;347375;28;94448;-94
2022/04/09 00:37:57;;;;;;;;;;;11.00;90.60;11.30;98892.00;;;;348200;27;92189;-94
2022/04/09 00:38:09;;;;;;;;;;;11.00;90.70;11.30;98890.00;;;;347231;28;95438;-93
2022/04/09 00:38:21;;;;;;;;;;;11.00;90.80;11.30;98896.00;;;;346988;28;91934;-94
2022/04/09 00:38:33;;;;;;;;;;;11.00;90.70;11.20;98895.00;;;;344433;28;95830;-94
2022/04/09 00:38:45;;;;;;;;;;;10.90;90.90;11.20;98884.00;;;;345672;28;91120;-93
2022/04/09 00:38:57;;;;;;;;;;;10.90;90.90;11.30;98896.00;;;;347231;28;95093;-93
2022/04/09 00:39:09;;;;;;;;;;;10.90;90.90;11.20;98893.00;;;;347015;27;91974;-93
2022/04/09 00:39:20;;;;;;;;;;;10.90;91.00;11.20;98891.00;;;;347440;28;93221;-93
2022/04/09 00:39:32;;;;;;;;;;;10.90;91.10;11.20;98900.00;;;;345411;28;92140;-94
2022/04/09 00:39:44;;;;;;;;;;;10.90;91.20;11.20;98896.00;;;;344309;28;95146;-94
2022/04/09 00:39:56;;;;;;;;;;;10.90;91.20;11.20;98899.00;;;;348051;27;93216;-93
2022/04/09 00:40:08;;;;;;;;;;;10.90;91.20;11.20;98891.00;;;;345814;28;97090;-94
2022/04/09 00:40:23;;;;;;;;;;;10.90;91.30;11.10;98901.00;;;;347072;27;91302;-93
2022/04/09 00:40:35;;;;;;;;;;;10.90;91.30;11.10;98911.00;;;;344555;28;95048;-93
2022/04/09 00:40:47;;;;;;;;;;;10.90;91.40;11.00;98922.00;;;;345617;28;92117;-93
2022/04/09 00:40:59;;;;;;;;;;;10.80;91.50;11.10;98910.00;;;;345864;28;95164;-93
2022/04/09 00:41:11;;;;;;;;;;;10.80;91.40;11.00;98921.00;;;;348164;27;92146;-93
2022/04/09 00:41:23;;;;;;;;;;;10.80;91.50;11.00;98921.00;;;;345920;28;96072;-93
2022/04/09 00:41:35;;;;;;;;;;;10.80;91.60;11.00;98912.00;;;;346927;28;92009;-94
2022/04/09 00:41:47;;;;;;;;;;;10.80;91.60;11.00;98918.00;;;;344469;28;94613;-93
2022/04/09 00:42:00;;;;;;;;;;;10.70;91.70;11.10;98922.00;;;;345671;28;91998;-93
2022/04/09 00:42:13;;;;;;;;;;;10.70;91.70;11.10;98932.00;;;;345826;28;96769;-93
2022/04/09 00:42:24;;;;;;;;;;;10.70;91.70;11.00;98926.00;;;;347034;28;92072;-94
2022/04/09 00:42:36;;;;;;;;;;;10.70;91.80;11.10;98929.00;;;;347342;28;95413;-94
2022/04/09 00:42:48;;;;;;;;;;;10.70;91.80;11.10;98921.00;;;;346786;27;91401;-94
2022/04/09 00:43:00;;;;;;;;;;;10.70;91.80;11.00;98925.00;;;;345401;28;95742;-94
2022/04/09 00:43:12;;;;;;;;;;;10.70;91.80;11.00;98927.00;;;;345363;28;91369;-94
2022/04/09 00:43:24;;;;;;;;;;;10.70;91.90;10.90;98931.00;;;;347318;28;94771;-93
2022/04/09 00:43:40;;;;;;;;;;;10.70;91.90;11.00;98928.00;;;;345445;28;91475;-94
2022/04/09 00:43:52;;;;;;;;;;;10.70;91.80;11.00;98924.00;;;;347200;28;93355;-93
2022/04/09 00:44:06;;;;;;;;;;;10.70;91.90;10.80;98928.00;;;;346949;28;92036;-93
2022/04/09 00:44:39;;;;;;;;;;;10.60;92.00;10.80;98934.00;;;;346105;28;95583;-93
2022/04/09 00:44:50;;;;;;;;;;;10.60;92.20;10.70;98943.00;;;;349521;27;91220;-93
2022/04/09 00:45:03;;;;;;;;;;;10.60;92.30;10.70;98945.00;;;;348905;28;94661;-93
2022/04/09 00:45:14;;;;;;;;;;;10.50;92.30;10.70;98935.00;;;;345713;28;91069;-94
2022/04/09 00:45:26;;;;;;;;;;;10.50;92.40;10.80;98937.00;;;;348939;28;94747;-92
2022/04/09 00:45:39;;;;;;;;;;;10.50;92.40;10.80;98935.00;;;;347179;28;91989;-92
2022/04/09 00:45:52;;;;;;;;;;;10.50;92.40;10.80;98948.00;;;;347718;28;94624;-93
2022/04/09 00:46:03;;;;;;;;;;;10.50;92.40;10.90;98941.00;;;;347046;28;91226;-93
2022/04/09 00:46:16;;;;;;;;;;;10.50;92.40;10.80;98938.00;;;;347598;28;95041;-93
2022/04/09 00:46:27;;;;;;;;;;;10.50;92.40;10.80;98941.00;;;;348807;28;92178;-94
2022/04/09 00:46:39;;;;;;;;;;;10.50;92.40;10.80;98941.00;;;;348841;28;96696;-93
2022/04/09 00:46:51;;;;;;;;;;;10.50;92.50;10.80;98934.00;;;;348525;28;91678;-93
2022/04/09 00:47:03;;;;;;;;;;;10.50;92.50;10.80;98939.00;;;;348804;28;95089;-93
2022/04/09 00:47:15;;;;;;;;;;;10.50;92.60;10.70;98942.00;;;;347432;28;91019;-93
2022/04/09 00:47:27;;;;;;;;;;;10.50;92.60;10.80;98938.00;;;;347516;28;94931;-94
2022/04/09 00:47:40;;;;;;;;;;;10.50;92.60;10.80;98948.00;;;;347255;28;92032;-93
2022/04/09 00:47:52;;;;;;;;;;;10.50;92.60;10.80;98948.00;;;;348853;28;94990;-93
2022/04/09 00:48:05;;;;;;;;;;;10.50;92.60;10.70;98945.00;;;;347288;28;91143;-93
2022/04/09 00:48:20;;;;;;;;;;;10.40;92.50;10.70;98945.00;;;;347391;28;94435;-93
2022/04/09 00:48:31;;;;;;;;;;;10.40;92.50;10.70;98940.00;;;;348567;28;92137;-94
2022/04/09 00:48:43;;;;;;;;;;;10.40;92.60;10.60;98948.00;;;;349884;27;95805;-93
2022/04/09 00:48:55;;;;;;;;;;;10.40;92.60;10.60;98940.00;;;;348151;28;91365;-94
2022/04/09 00:49:07;;;;;;;;;;;10.40;92.80;10.70;98938.00;;;;348715;28;95693;-93
2022/04/09 00:49:19;;;;;;;;;;;10.40;92.80;10.70;98938.00;;;;348924;28;91912;-93
2022/04/09 00:49:30;;;;;;;;;;;10.40;92.90;10.70;98931.00;;;;347492;28;94450;-93
2022/04/09 00:49:42;;;;;;;;;;;10.40;93.00;10.80;98951.00;;;;347067;28;91313;-92
2022/04/09 00:49:54;;;;;;;;;;;10.40;93.00;10.80;98941.00;;;;348871;28;92259;-93
2022/04/09 00:50:07;;;;;;;;;;;10.40;92.90;10.80;98945.00;;;;347289;28;91184;-93
2022/04/09 00:50:18;;;;;;;;;;;10.40;92.90;10.80;98950.00;;;;344604;28;95010;-93
2022/04/09 00:50:30;;;;;;;;;;;10.40;92.80;10.80;98960.00;;;;345804;28;92891;-92
2022/04/09 00:50:42;;;;;;;;;;;10.40;93.00;10.80;98939.00;;;;345985;28;95467;-93
2022/04/09 00:50:54;;;;;;;;;;;10.40;93.00;10.70;98945.00;;;;348435;28;91135;-94
2022/04/09 00:51:06;;;;;;;;;;;10.40;93.20;10.70;98950.00;;;;347340;28;94630;-93
2022/04/09 00:51:18;;;;;;;;;;;10.40;93.40;10.70;98953.00;;;;345680;28;91078;-93
2022/04/09 00:51:30;;;;;;;;;;;10.40;93.10;10.70;98949.00;;;;347342;28;94918;-93
2022/04/09 00:51:42;;;;;;;;;;;10.40;93.10;10.60;98952.00;;;;348649;28;91218;-93
2022/04/09 00:51:54;;;;;;;;;;;10.40;93.20;10.50;98960.00;;;;345846;28;92381;-93
2022/04/09 00:52:07;;;;;;;;;;;10.30;93.30;10.60;98961.00;;;;345765;28;92106;-93
2022/04/09 00:52:19;;;;;;;;;;;10.30;93.40;10.50;98960.00;;;;345746;28;94755;-94
2022/04/09 00:52:32;;;;;;;;;;;10.30;93.40;10.40;98956.00;;;;345598;28;92152;-93
2022/04/09 00:52:51;;;;;;;;;;;10.30;93.50;10.30;98965.00;;;;345868;28;97156;-94
2022/04/09 00:53:03;;;;;;;;;;;10.20;93.60;10.30;98952.00;;;;345553;28;92106;-93
2022/04/09 00:53:15;;;;;;;;;;;10.10;93.60;10.30;98957.00;;;;343038;28;95726;-93
2022/04/09 00:53:27;;;;;;;;;;;10.20;93.60;10.30;98965.00;;;;344284;28;91110;-93
2022/04/09 00:53:42;;;;;;;;;;;10.10;93.80;10.30;98963.00;;;;344410;28;94048;-93
2022/04/09 00:53:54;;;;;;;;;;;10.10;93.90;10.20;98979.00;;;;347112;28;91910;-94
2022/04/09 00:54:06;;;;;;;;;;;10.10;93.90;10.30;98966.00;;;;347331;28;94793;-93
2022/04/09 00:54:18;;;;;;;;;;;10.00;94.00;10.30;98972.00;;;;346902;28;92004;-92
2022/04/09 00:54:31;;;;;;;;;;;10.00;94.00;10.30;98979.00;;;;347141;28;94528;-93
2022/04/09 00:54:43;;;;;;;;;;;10.10;94.00;10.30;98984.00;;;;346987;28;92894;-93
2022/04/09 00:54:54;;;;;;;;;;;10.00;93.80;10.30;98961.00;;;;344237;28;96505;-93
2022/04/09 00:55:07;;;;;;;;;;;10.00;93.80;10.20;98982.00;;;;347284;27;92111;-94
2022/04/09 00:55:20;;;;;;;;;;;10.00;93.80;10.10;98978.00;;;;343071;28;96150;-94
2022/04/09 00:56:20;;;;;;;;;;;9.90;93.60;9.90;98987.00;;;;344455;28;95885;-93
2022/04/09 00:56:33;;;;;;;;;;;9.80;93.60;10.00;98978.00;;;;345563;28;92190;-93
2022/04/09 00:56:45;;;;;;;;;;;9.80;93.60;10.00;98965.00;;;;348652;27;94954;-93
2022/04/09 00:57:05;;;;;;;;;;;9.80;93.70;10.00;98979.00;;;;345535;28;91161;-93
2022/04/09 00:57:16;;;;;;;;;;;9.80;93.80;10.00;98968.00;;;;347316;28;92422;-93
2022/04/09 00:57:28;;;;;;;;;;;9.70;93.90;9.90;98958.00;;;;345442;28;92089;-93
2022/04/09 00:57:41;;;;;;;;;;;9.70;93.90;9.70;98970.00;;;;347047;28;96481;-94
2022/04/09 00:57:52;;;;;;;;;;;9.70;94.20;9.70;98978.00;;;;347196;27;92160;-93
2022/04/09 00:58:04;;;;;;;;;;;9.60;94.30;9.80;98974.00;;;;345602;28;96235;-93
2022/04/09 00:58:17;;;;;;;;;;;9.60;94.30;9.70;98968.00;;;;345503;28;92144;-93
2022/04/09 00:58:30;;;;;;;;;;;9.60;94.40;9.80;98986.00;;;;347163;28;95927;-93
2022/04/09 00:58:55;;;;;;;;;;;9.60;94.50;9.70;98972.00;;;;345569;28;91951;-93
2022/04/09 00:59:10;;;;;;;;;;;9.60;94.60;9.70;98972.00;;;;347137;28;95828;-93
2022/04/09 00:59:22;;;;;;;;;;;9.50;94.80;9.60;98980.00;;;;346964;28;92073;-93
2022/04/09 00:59:37;;;;;;;;;;;9.50;95.00;9.70;98978.00;;;;345800;28;95689;-93
2022/04/09 00:59:49;;;;;;;;;;;9.40;94.90;9.70;98971.00;;;;346932;28;92833;-93
2022/04/09 01:00:09;;;;;;;;;;;9.40;95.10;9.80;98977.00;;;;347004;28;96844;-94
2022/04/09 01:00:21;;;;;;;;;;;9.40;95.10;9.70;98982.00;;;;345514;28;92232;-93
2022/04/09 01:00:34;;;;;;;;;;;9.50;95.40;9.60;98974.00;;;;347201;28;95675;-93
2022/04/09 01:00:46;;;;;;;;;;;9.40;95.40;9.60;98974.00;;;;346945;28;92026;-93
2022/04/09 01:00:58;;;;;;;;;;;9.40;95.50;9.60;98979.00;;;;346791;28;96019;-94
2022/04/09 01:01:10;;;;;;;;;;;9.40;95.60;9.70;98974.00;;;;345417;28;91412;-93
2022/04/09 01:01:29;;;;;;;;;;;9.40;95.50;9.70;98986.00;;;;346987;28;95796;-94
2022/04/09 01:01:41;;;;;;;;;;;9.40;95.60;9.70;98971.00;;;;346897;28;92099;-93
2022/04/09 01:01:54;;;;;;;;;;;9.40;95.60;9.60;98976.00;;;;348783;27;94423;-93